Time;durP1;ratioP1;P1;durP2;ratioP2;P2;SDS_P1;SDS_P2;PMS_P1;PMS_P2;Temp;Humidity;BMP_temperature;BMP_pressure;BME280_temperature;BME280_humidity;BME280_pressure;Samples;Min_cycle;Max_cycle;Signal;HPM_P1;HPM_P2
2021/03/28 00:00:02;;;;;;;6.63;2.08;;;;;;;3.94;90.79;97193.44;1044413;28;20286;-53
2021/03/28 00:00:54;;;;;;;5.88;2.25;;;;;;;3.94;90.65;97193.44;1041857;28;20018;-56
2021/03/28 00:01:32;;;;;;;5.35;2.13;;;;;;;3.96;91.70;97196.81;1041781;28;20050;-54
2021/03/28 00:02:14;;;;;;;5.35;2.00;;;;;;;3.96;91.80;97195.94;1043449;28;20268;-53
2021/03/28 00:02:57;;;;;;;8.30;2.17;;;;;;;3.98;92.05;97189.00;1033175;28;20265;-49
2021/03/28 00:03:37;;;;;;;4.53;2.20;;;;;;;4.08;91.33;97198.25;1039845;28;20274;-52
2021/03/28 00:04:10;;;;;;;5.38;1.90;;;;;;;4.03;91.60;97200.09;1035529;28;20269;-50
2021/03/28 00:04:46;;;;;;;7.53;2.30;;;;;;;4.00;91.49;97201.03;1031585;28;20256;-49
2021/03/28 00:05:27;;;;;;;6.78;2.30;;;;;;;3.97;91.50;97203.69;1027620;28;20700;-50
2021/03/28 00:06:17;;;;;;;5.15;2.10;;;;;;;3.99;90.83;97201.91;1038176;28;20272;-53
2021/03/28 00:06:48;;;;;;;5.75;2.00;;;;;;;3.93;92.10;97206.41;1039856;28;20268;-51
2021/03/28 00:07:19;;;;;;;6.20;1.90;;;;;;;3.97;92.19;97206.28;1031610;28;20081;-49
2021/03/28 00:07:59;;;;;;;6.03;2.05;;;;;;;4.00;91.79;97200.19;1039680;28;20325;-53
2021/03/28 00:08:29;;;;;;;8.65;2.22;;;;;;;4.01;91.49;97200.13;1035545;28;20025;-48
2021/03/28 00:09:14;;;;;;;7.95;2.40;;;;;;;4.02;91.96;97204.44;1027664;28;20090;-49
2021/03/28 00:09:48;;;;;;;4.78;1.80;;;;;;;4.03;92.18;97200.94;1031457;28;20024;-49
2021/03/28 00:10:35;;;;;;;5.68;2.30;;;;;;;4.07;91.89;97206.91;1035502;28;20265;-53
2021/03/28 00:11:17;;;;;;;6.40;2.30;;;;;;;4.02;91.81;97201.03;1035626;28;20280;-50
2021/03/28 00:12:05;;;;;;;7.40;2.10;;;;;;;3.95;92.32;97212.41;1031599;28;20265;-52
2021/03/28 00:12:36;;;;;;;8.02;2.03;;;;;;;3.94;92.92;97206.38;1031578;28;20273;-49
2021/03/28 00:13:18;;;;;;;5.80;2.00;;;;;;;3.96;92.64;97207.19;1031700;28;20257;-51
2021/03/28 00:13:53;;;;;;;6.03;2.17;;;;;;;3.95;92.75;97197.69;1047662;28;20566;-51
2021/03/28 00:14:35;;;;;;;6.35;2.50;;;;;;;3.95;92.22;97202.88;1046359;28;20251;-53
2021/03/28 00:15:07;;;;;;;6.78;2.45;;;;;;;3.95;92.86;97208.06;1039827;28;20256;-50
2021/03/28 00:15:47;;;;;;;6.85;2.10;;;;;;;3.92;92.25;97210.72;1023576;28;20267;-50
2021/03/28 00:16:17;;;;;;;7.15;2.30;;;;;;;3.95;92.04;97196.88;1032515;28;20633;-50
2021/03/28 00:16:48;;;;;;;5.50;1.90;;;;;;;3.97;92.37;97211.47;1040557;28;20073;-52
2021/03/28 00:17:19;;;;;;;6.10;1.95;;;;;;;3.94;92.27;97213.28;1036346;28;20021;-50
2021/03/28 00:17:53;;;;;;;7.30;2.60;;;;;;;3.92;92.41;97202.94;1036369;28;20128;-52
2021/03/28 00:18:26;;;;;;;5.63;2.20;;;;;;;3.98;92.77;97209.72;1036417;28;20256;-49
2021/03/28 00:19:07;;;;;;;6.03;2.20;;;;;;;3.99;92.54;97209.69;1040397;28;20741;-51
2021/03/28 00:19:38;;;;;;;5.68;2.05;;;;;;;4.00;92.43;97205.38;1040498;28;20623;-50
2021/03/28 00:20:16;;;;;;;7.82;1.98;;;;;;;3.99;92.75;97208.84;1044548;28;20294;-53
2021/03/28 00:20:47;;;;;;;6.05;1.80;;;;;;;3.98;92.55;97208.00;1040339;28;20025;-51
2021/03/28 00:21:19;;;;;;;6.40;2.08;;;;;;;3.96;91.88;97209.78;1028419;28;20270;-50
2021/03/28 00:21:53;;;;;;;4.85;1.98;;;;;;;3.93;93.10;97206.41;1028343;28;20101;-50
2021/03/28 00:22:29;;;;;;;10.15;3.25;;;;;;;3.94;92.16;97206.38;1036271;28;20303;-49
2021/03/28 00:23:12;;;;;;;5.07;2.03;;;;;;;3.92;92.07;97200.34;1040364;28;20266;-49
2021/03/28 00:23:54;;;;;;;5.70;2.13;;;;;;;3.92;93.09;97213.31;1040292;28;20694;-51
2021/03/28 00:24:34;;;;;;;6.50;2.28;;;;;;;3.88;93.54;97196.13;1032362;28;20257;-52
2021/03/28 00:25:10;;;;;;;6.93;1.90;;;;;;;3.91;93.04;97205.59;1032101;28;20619;-51
2021/03/28 00:25:53;;;;;;;6.20;2.00;;;;;;;3.90;93.35;97207.31;1036484;28;20245;-54
2021/03/28 00:26:30;;;;;;;8.13;2.42;;;;;;;3.86;93.93;97201.34;1036339;28;20307;-49
2021/03/28 00:27:06;;;;;;;4.95;1.98;;;;;;;3.95;92.81;97205.47;1036345;28;20349;-50
2021/03/28 00:27:40;;;;;;;5.70;2.15;;;;;;;3.93;92.40;97199.47;1033102;28;20242;-53
2021/03/28 00:28:20;;;;;;;7.35;2.38;;;;;;;3.90;94.13;97209.91;1026521;28;20270;-52
2021/03/28 00:29:13;;;;;;;6.43;2.30;;;;;;;3.93;94.08;97206.41;1039159;28;20245;-51
2021/03/28 00:30:03;;;;;;;5.47;2.08;;;;;;;3.99;94.50;97204.50;1040594;28;20029;-47
2021/03/28 00:30:38;;;;;;;6.65;2.15;;;;;;;3.98;94.26;97201.94;1040345;28;20294;-48
2021/03/28 00:31:21;;;;;;;8.95;2.55;;;;;;;3.98;94.85;97202.81;1040444;28;20034;-52
2021/03/28 00:32:03;;;;;;;6.68;2.35;;;;;;;4.01;93.79;97200.13;1036364;28;20260;-50
2021/03/28 00:32:44;;;;;;;6.28;2.03;;;;;;;4.04;93.51;97205.25;1028282;28;20635;-50
2021/03/28 00:33:17;;;;;;;9.57;2.80;;;;;;;4.01;94.21;97207.06;1032239;28;20249;-54
2021/03/28 00:34:00;;;;;;;6.38;1.88;;;;;;;3.97;94.51;97197.66;1032127;28;20249;-50
2021/03/28 00:34:40;;;;;;;6.68;2.35;;;;;;;3.96;95.94;97204.59;1032256;28;20264;-51
2021/03/28 00:35:13;;;;;;;7.43;2.20;;;;;;;3.96;94.94;97202.00;1032383;28;20273;-49
2021/03/28 00:35:56;;;;;;;7.10;2.42;;;;;;;3.96;96.16;97201.13;1035751;28;20582;-51
2021/03/28 00:36:31;;;;;;;7.70;2.45;;;;;;;3.95;95.96;97200.28;1039778;28;20256;-49
2021/03/28 00:37:17;;;;;;;3.65;1.83;;;;;;;3.93;96.07;97209.00;1039194;28;20749;-49
2021/03/28 00:38:00;;;;;;;6.93;2.30;;;;;;;3.95;96.75;97204.63;1040363;28;20753;-49
2021/03/28 00:38:45;;;;;;;6.78;2.30;;;;;;;3.94;97.84;97200.31;1044396;28;20266;-50
2021/03/28 00:39:30;;;;;;;7.93;2.42;;;;;;;3.95;98.39;97204.63;1040611;28;20260;-50
2021/03/28 00:40:13;;;;;;;6.45;2.63;;;;;;;3.85;98.66;97204.00;1036368;28;20269;-49
2021/03/28 00:40:44;;;;;;;6.05;2.67;;;;;;;3.86;98.83;97206.53;1040438;28;20264;-50
2021/03/28 00:41:31;;;;;;;7.85;2.60;;;;;;;3.76;99.48;97199.03;1036326;28;20261;-49
2021/03/28 00:42:05;;;;;;;8.50;2.55;;;;;;;3.77;100.00;97205.91;1036261;28;20026;-51
2021/03/28 00:42:37;;;;;;;6.20;2.30;;;;;;;3.76;100.00;97194.69;1032255;28;20796;-50
2021/03/28 00:43:24;;;;;;;7.75;2.58;;;;;;;3.69;99.16;97196.56;1040430;28;20268;-50
2021/03/28 00:43:59;;;;;;;10.95;2.88;;;;;;;3.67;99.55;97198.34;1040217;28;20298;-49
2021/03/28 00:44:30;;;;;;;6.13;2.47;;;;;;;3.65;99.34;97197.53;1040481;28;20338;-54
2021/03/28 00:45:23;;;;;;;6.40;2.70;;;;;;;3.63;100.00;97208.81;1037470;28;20782;-50
2021/03/28 00:45:56;;;;;;;6.35;2.40;;;;;;;3.60;99.93;97194.19;1036356;28;20041;-51
2021/03/28 00:46:39;;;;;;;6.65;2.85;;;;;;;3.60;99.73;97196.78;1044046;28;20343;-50
2021/03/28 00:47:11;;;;;;;6.13;2.45;;;;;;;3.58;99.87;97195.94;1040420;28;20749;-53
2021/03/28 00:47:45;;;;;;;5.90;2.20;;;;;;;3.55;100.00;97198.63;1032212;28;20281;-50
2021/03/28 00:48:19;;;;;;;6.07;2.25;;;;;;;3.55;100.00;97198.63;1028096;28;20250;-53
2021/03/28 00:48:52;;;;;;;6.72;2.70;;;;;;;3.56;100.00;97199.47;1032229;28;20302;-49
2021/03/28 00:49:32;;;;;;;5.93;2.40;;;;;;;3.52;100.00;97198.69;1033745;28;20261;-49
2021/03/28 00:50:08;;;;;;;7.53;2.72;;;;;;;3.50;100.00;97200.47;1036176;28;20331;-49
2021/03/28 00:50:58;;;;;;;7.85;2.75;;;;;;;3.44;100.00;97200.59;1036358;28;20033;-50
2021/03/28 00:51:28;;;;;;;6.28;2.90;;;;;;;3.35;100.00;97195.63;1028345;28;20246;-50
2021/03/28 00:52:02;;;;;;;6.75;2.90;;;;;;;3.36;100.00;97198.19;1032245;28;20659;-50
2021/03/28 00:52:35;;;;;;;6.90;3.00;;;;;;;3.39;100.00;97202.44;1036103;28;20379;-50
2021/03/28 00:53:07;;;;;;;6.82;2.35;;;;;;;3.41;100.00;97201.50;1036302;28;20293;-50
2021/03/28 00:53:45;;;;;;;8.05;2.80;;;;;;;3.35;100.00;97201.66;1040184;28;20252;-50
2021/03/28 00:54:18;;;;;;;6.70;2.28;;;;;;;3.28;100.00;97197.47;1032213;28;20262;-50
2021/03/28 00:55:01;;;;;;;6.63;2.45;;;;;;;3.24;100.00;97194.09;1036175;28;20245;-50
2021/03/28 00:55:36;;;;;;;8.85;2.60;;;;;;;3.22;100.00;97193.28;1036192;28;20259;-49
2021/03/28 00:56:20;;;;;;;5.60;2.33;;;;;;;3.24;100.00;97194.09;1032360;28;20847;-50
2021/03/28 00:56:53;;;;;;;6.50;2.70;;;;;;;3.24;100.00;97194.09;1036221;28;20714;-50
2021/03/28 00:57:34;;;;;;;5.80;2.30;;;;;;;3.22;100.00;97189.84;1032335;28;20312;-50
2021/03/28 00:58:11;;;;;;;5.93;2.35;;;;;;;3.19;100.00;97189.91;1031841;28;20304;-49
2021/03/28 00:58:54;;;;;;;6.10;2.95;;;;;;;3.17;100.00;97197.69;1033800;28;20288;-50
2021/03/28 00:59:30;;;;;;;8.70;2.85;;;;;;;3.16;100.00;97190.00;1036241;28;20292;-49
2021/03/28 01:00:12;;;;;;;6.47;2.45;;;;;;;3.16;100.00;97190.00;1035358;28;20770;-51
2021/03/28 01:01:02;;;;;;;7.88;2.35;;;;;;;3.13;100.00;97188.28;1036114;28;20746;-51
2021/03/28 01:01:35;;;;;;;9.18;2.55;;;;;;;3.13;100.00;97190.88;1036424;28;20249;-51
2021/03/28 01:02:20;;;;;;;8.95;3.10;;;;;;;3.11;100.00;97190.06;1032233;28;20745;-50
2021/03/28 01:03:03;;;;;;;6.45;2.30;;;;;;;3.04;100.00;97186.75;1028073;28;20728;-52
2021/03/28 01:03:57;;;;;;;6.70;2.55;;;;;;;3.00;100.00;97182.50;1036093;28;20272;-50
2021/03/28 01:04:42;;;;;;;5.50;2.08;;;;;;;3.00;100.00;97186.84;1043738;28;20290;-50
2021/03/28 01:05:29;;;;;;;7.80;2.83;;;;;;;2.98;100.00;97191.19;1040561;28;20252;-51
2021/03/28 01:06:14;;;;;;;7.65;2.65;;;;;;;2.94;100.00;97185.22;1036524;28;20777;-50
2021/03/28 01:06:48;;;;;;;10.63;2.85;;;;;;;2.93;100.00;97188.72;1037069;28;20272;-53
2021/03/28 01:07:19;;;;;;;6.85;2.25;;;;;;;2.91;100.00;97188.75;1036250;28;20448;-50
2021/03/28 01:08:09;;;;;;;8.35;3.15;;;;;;;2.92;100.00;97181.81;1036152;28;20351;-50
2021/03/28 01:08:52;;;;;;;4.88;2.10;;;;;;;2.91;100.00;97193.09;1028246;28;20301;-48
2021/03/28 01:09:34;;;;;;;5.68;2.50;;;;;;;2.86;100.00;97185.38;1028219;28;20030;-52
2021/03/28 01:10:17;;;;;;;7.03;2.45;;;;;;;2.81;100.00;97188.94;1036175;28;20285;-52
2021/03/28 01:11:00;;;;;;;6.70;2.42;;;;;;;2.79;100.00;97188.97;1040289;28;20733;-50
2021/03/28 01:11:49;;;;;;;5.47;2.40;;;;;;;2.81;100.00;97183.78;1032160;28;20257;-51
2021/03/28 01:12:40;;;;;;;8.07;2.53;;;;;;;2.79;100.00;97180.38;1036204;28;20275;-50
2021/03/28 01:13:30;;;;;;;6.00;2.20;;;;;;;2.73;100.00;97182.19;1034312;28;20379;-53
2021/03/28 01:14:05;;;;;;;9.15;2.58;;;;;;;2.73;100.00;97181.34;1036046;28;20845;-50
2021/03/28 01:14:47;;;;;;;5.95;2.45;;;;;;;2.69;100.00;97177.09;1040183;28;20427;-49
2021/03/28 01:15:47;;;;;;;8.57;2.30;;;;;;;2.63;100.00;97179.81;1036073;28;20335;-49
2021/03/28 01:16:38;;;;;;;6.45;2.33;;;;;;;2.57;100.00;97173.00;1038823;28;20260;-50
2021/03/28 01:17:22;;;;;;;8.82;2.70;;;;;;;2.53;100.00;97173.94;1047107;28;20028;-52
2021/03/28 01:17:55;;;;;;;5.95;2.33;;;;;;;2.50;100.00;97174.88;1044347;28;20331;-51
2021/03/28 01:18:38;;;;;;;6.60;2.40;;;;;;;2.45;100.00;97170.66;1044496;28;20251;-49
2021/03/28 01:19:23;;;;;;;8.68;2.45;;;;;;;2.41;100.00;97172.44;1044312;28;20263;-52
2021/03/28 01:20:02;;;;;;;5.93;2.58;;;;;;;2.40;100.00;97168.13;1040103;28;20335;-50
2021/03/28 01:20:43;;;;;;;5.65;2.33;;;;;;;2.36;100.00;97163.91;1040261;28;20264;-51
2021/03/28 01:21:34;;;;;;;7.78;2.78;;;;;;;2.39;100.00;97166.44;1040046;28;20112;-49
2021/03/28 01:22:26;;;;;;;5.57;2.20;;;;;;;2.36;100.00;97171.66;1039692;28;20083;-49
2021/03/28 01:23:03;;;;;;;4.40;2.00;;;;;;;2.38;100.00;97169.06;1039414;28;20260;-49
2021/03/28 01:23:42;;;;;;;8.90;2.40;;;;;;;2.36;100.00;97160.47;1031875;28;20258;-50
2021/03/28 01:24:14;;;;;;;5.40;2.20;;;;;;;2.32;100.00;97163.09;1036217;28;20323;-48
2021/03/28 01:24:52;;;;;;;7.30;2.42;;;;;;;2.33;100.00;97164.84;1036157;28;20343;-50
2021/03/28 01:25:42;;;;;;;7.22;2.50;;;;;;;2.32;100.00;97164.84;1032094;28;20257;-50
2021/03/28 01:26:30;;;;;;;6.95;2.50;;;;;;;2.30;100.00;97164.03;1032012;28;20410;-51
2021/03/28 01:27:20;;;;;;;5.72;2.47;;;;;;;2.27;100.00;97161.50;1032012;28;20077;-49
2021/03/28 01:27:55;;;;;;;8.73;2.92;;;;;;;2.29;100.00;97160.59;1032519;28;20257;-50
2021/03/28 01:28:30;;;;;;;8.85;2.22;;;;;;;2.26;100.00;97164.97;1028004;28;20026;-51
2021/03/28 01:29:12;;;;;;;8.15;3.28;;;;;;;2.27;100.00;97164.94;1040117;28;20301;-50
2021/03/28 01:29:46;;;;;;;6.22;2.10;;;;;;;2.26;100.00;97165.81;1044342;28;20267;-51
2021/03/28 01:30:20;;;;;;;5.70;2.30;;;;;;;2.26;100.00;97164.97;1036119;28;20280;-50
2021/03/28 01:30:53;;;;;;;7.53;2.40;;;;;;;2.29;100.00;97163.19;1035980;28;20264;-50
2021/03/28 01:31:35;;;;;;;7.43;2.17;;;;;;;2.29;100.00;97159.72;1037544;28;20315;-51
2021/03/28 01:32:09;;;;;;;6.00;2.28;;;;;;;2.28;100.00;97165.78;1034396;28;20269;-49
2021/03/28 01:32:41;;;;;;;5.70;2.22;;;;;;;2.27;100.00;97166.66;1032013;28;20297;-47
2021/03/28 01:33:14;;;;;;;6.35;2.85;;;;;;;2.26;100.00;97164.97;1036077;28;20261;-52
2021/03/28 01:33:54;;;;;;;7.13;2.47;;;;;;;2.26;100.00;97167.56;1035823;28;20285;-50
2021/03/28 01:34:29;;;;;;;5.63;2.20;;;;;;;2.26;100.00;97170.13;1044132;28;20294;-50
2021/03/28 01:35:15;;;;;;;7.78;3.20;;;;;;;2.27;100.00;97169.25;1032064;28;20395;-51
2021/03/28 01:36:04;;;;;;;8.07;2.22;;;;;;;2.24;100.00;97170.16;1044183;28;20255;-50
2021/03/28 01:36:40;;;;;;;5.88;2.00;;;;;;;2.27;100.00;97161.50;1040800;28;20267;-49
2021/03/28 01:37:15;;;;;;;5.30;2.40;;;;;;;2.25;100.00;97165.84;1040193;28;20286;-48
2021/03/28 01:38:02;;;;;;;4.85;2.17;;;;;;;2.24;100.00;97166.72;1036069;28;20340;-51
2021/03/28 01:38:37;;;;;;;6.20;2.58;;;;;;;2.23;100.00;97163.28;1031865;28;20730;-50
2021/03/28 01:39:19;;;;;;;6.55;2.30;;;;;;;2.25;100.00;97163.25;1032086;28;20296;-50
2021/03/28 01:39:57;;;;;;;5.88;2.75;;;;;;;2.23;100.00;97163.28;1032108;28;20254;-49
2021/03/28 01:40:40;;;;;;;7.40;2.40;;;;;;;2.21;100.00;97159.03;1040122;28;20252;-49
2021/03/28 01:41:15;;;;;;;8.18;2.40;;;;;;;2.19;100.00;97163.38;1036016;28;20265;-50
2021/03/28 01:42:02;;;;;;;6.15;2.10;;;;;;;2.15;100.00;97157.41;1028019;28;20270;-51
2021/03/28 01:42:51;;;;;;;6.28;2.10;;;;;;;2.11;100.00;97172.09;1039874;28;20256;-51
2021/03/28 01:43:34;;;;;;;5.60;2.25;;;;;;;2.07;100.00;97165.28;1041865;28;20280;-50
2021/03/28 01:44:17;;;;;;;5.75;2.35;;;;;;;2.07;100.00;97162.69;1035846;28;20360;-51
2021/03/28 01:44:57;;;;;;;6.55;2.13;;;;;;;2.08;100.00;97167.00;1027938;28;20677;-49
2021/03/28 01:45:41;;;;;;;6.90;2.50;;;;;;;2.09;100.00;97167.84;1036076;28;20253;-48
2021/03/28 01:46:15;;;;;;;6.15;2.42;;;;;;;2.05;100.00;97156.72;1044279;28;20043;-50
2021/03/28 01:47:00;;;;;;;5.88;2.22;;;;;;;2.04;100.00;97157.56;1047897;28;20318;-48
2021/03/28 01:47:50;;;;;;;7.78;2.50;;;;;;;2.06;100.00;97160.13;1044235;28;20252;-49
2021/03/28 01:48:37;;;;;;;7.20;2.47;;;;;;;2.01;100.00;97167.97;1040239;28;20332;-52
2021/03/28 01:49:19;;;;;;;6.88;2.40;;;;;;;1.99;100.00;97159.41;1036025;28;20033;-49
2021/03/28 01:49:55;;;;;;;4.82;2.38;;;;;;;1.99;100.00;97156.81;1027893;28;20309;-50
2021/03/28 01:50:45;;;;;;;5.40;2.25;;;;;;;1.99;100.00;97161.13;1036039;28;20349;-48
2021/03/28 01:51:30;;;;;;;7.00;2.50;;;;;;;1.95;100.00;97152.56;1040101;28;20260;-49
2021/03/28 01:52:21;;;;;;;6.53;2.42;;;;;;;1.94;100.00;97156.03;1032522;28;20027;-51
2021/03/28 01:53:01;;;;;;;8.48;2.30;;;;;;;1.94;100.00;97161.19;1025185;28;20267;-50
2021/03/28 01:53:36;;;;;;;;;;;;;;;1.92;100.00;97160.38;1028458;28;20242;-49
2021/03/28 01:54:20;;;;;;;6.43;2.20;;;;;;;1.89;100.00;97163.00;1044183;28;19905;-51
2021/03/28 01:55:05;;;;;;;5.40;2.13;;;;;;;1.87;100.00;97159.59;1039923;28;20276;-51
2021/03/28 01:55:48;;;;;;;5.85;2.20;;;;;;;1.86;100.00;97166.50;1035963;28;20253;-49
2021/03/28 01:56:31;;;;;;;6.10;2.13;;;;;;;1.85;100.00;97162.19;1035942;28;20261;-50
2021/03/28 01:57:02;;;;;;;6.32;2.28;;;;;;;1.84;100.00;97163.09;1035831;28;20291;-50
2021/03/28 01:57:52;;;;;;;7.93;2.30;;;;;;;1.80;100.00;97158.81;1032010;28;20250;-53
2021/03/28 01:58:37;;;;;;;6.90;2.75;;;;;;;1.78;100.00;97158.00;1035969;28;20296;-51
2021/03/28 01:59:09;;;;;;;5.40;2.28;;;;;;;1.80;100.00;97173.47;1040531;28;20108;-50
2021/03/28 01:59:59;;;;;;;7.47;2.50;;;;;;;1.86;100.00;97161.34;1039963;28;20244;-49
2021/03/28 02:00:48;;;;;;;7.60;2.30;;;;;;;1.81;100.00;97165.72;1036113;28;20264;-48
2021/03/28 02:01:21;;;;;;;6.47;2.33;;;;;;;1.78;100.00;97165.75;1041085;28;20029;-49
2021/03/28 02:02:12;;;;;;;7.55;2.47;;;;;;;1.77;100.00;97163.22;1040024;28;20260;-48
2021/03/28 02:02:53;;;;;;;8.48;3.25;;;;;;;1.78;100.00;97164.91;1044017;28;20275;-50
2021/03/28 02:03:27;;;;;;;;;;;;;;;1.76;100.00;97167.50;1036558;28;20256;-52
2021/03/28 02:04:04;;;;;;;5.53;2.03;;;;;;;1.76;100.00;97159.75;1048183;28;20301;-50
2021/03/28 02:04:51;;;;;;;6.75;2.55;;;;;;;1.74;100.00;97169.25;1044165;28;20326;-53
2021/03/28 02:05:33;;;;;;;5.85;2.35;;;;;;;1.74;100.00;97161.50;1035427;28;20257;-50
2021/03/28 02:06:30;;;;;;;6.07;1.92;;;;;;;1.76;100.00;97159.75;1028005;28;20626;-50
2021/03/28 02:07:20;;;;;;;7.78;2.30;;;;;;;1.76;100.00;97164.94;1030036;28;20657;-48
2021/03/28 02:08:00;;;;;;;9.68;3.05;;;;;;;1.75;100.00;97161.50;1038157;28;20260;-48
2021/03/28 02:08:43;;;;;;;8.20;2.30;;;;;;;1.74;100.00;97166.69;1035955;28;20026;-50
2021/03/28 02:09:25;;;;;;;4.57;2.22;;;;;;;1.64;100.00;97165.97;1040110;28;20025;-51
2021/03/28 02:10:15;;;;;;;6.93;2.85;;;;;;;1.63;100.00;97159.09;1031850;28;20866;-49
2021/03/28 02:10:59;;;;;;;5.07;2.15;;;;;;;1.63;100.00;97164.25;1036031;28;20332;-49
2021/03/28 02:11:38;;;;;;;6.40;2.10;;;;;;;1.64;100.00;97165.97;1039989;28;20017;-49
2021/03/28 02:12:21;;;;;;;4.13;2.20;;;;;;;1.63;100.00;97161.66;1040040;28;20278;-49
2021/03/28 02:13:01;;;;;;;7.90;2.80;;;;;;;1.66;100.00;97163.38;1040113;28;20258;-52
2021/03/28 02:13:52;;;;;;;6.95;2.30;;;;;;;1.67;100.00;97165.94;1039916;28;20715;-52
2021/03/28 02:14:42;;;;;;;5.32;2.30;;;;;;;1.68;100.00;97165.03;1039962;28;20029;-48
2021/03/28 02:15:28;;;;;;;7.63;2.35;;;;;;;1.69;100.00;97163.31;1040004;28;20288;-49
2021/03/28 02:16:18;;;;;;;8.75;2.60;;;;;;;1.67;100.00;97154.72;1031841;28;20451;-50
2021/03/28 02:17:00;;;;;;;6.38;2.55;;;;;;;1.66;100.00;97156.47;1035920;28;20353;-50
2021/03/28 02:17:40;;;;;;;7.18;2.03;;;;;;;1.66;100.00;97150.47;1031874;28;20025;-49
2021/03/28 02:18:30;;;;;;;9.70;2.45;;;;;;;1.65;100.00;97156.50;1035863;28;20253;-50
2021/03/28 02:19:13;;;;;;;6.35;2.45;;;;;;;1.65;100.00;97153.91;1040158;28;20510;-49
2021/03/28 02:19:56;;;;;;;6.05;2.42;;;;;;;1.66;100.00;97153.03;1040214;28;20384;-53
2021/03/28 02:20:38;;;;;;;7.63;2.35;;;;;;;1.65;100.00;97156.50;1031882;28;20281;-50
2021/03/28 02:21:21;;;;;;;6.68;2.60;;;;;;;1.63;100.00;97151.34;1031920;28;20341;-51
2021/03/28 02:22:01;;;;;;;6.35;2.25;;;;;;;1.67;100.00;97150.44;1035905;28;20249;-52
2021/03/28 02:22:46;;;;;;;6.10;2.25;;;;;;;1.75;100.00;97153.75;1035770;28;20268;-52
2021/03/28 02:23:37;;;;;;;6.22;2.45;;;;;;;1.79;100.00;97159.72;1035939;28;20105;-49
2021/03/28 02:24:20;;;;;;;7.22;2.53;;;;;;;1.83;100.00;97156.19;1040457;28;20326;-49
2021/03/28 02:25:04;;;;;;;5.43;2.25;;;;;;;1.86;100.00;97156.16;1040398;28;20314;-52
2021/03/28 02:25:46;;;;;;;6.60;2.20;;;;;;;1.90;100.00;97155.22;1036034;28;20336;-50
2021/03/28 02:26:17;;;;;;;5.97;2.50;;;;;;;1.93;100.00;97151.72;1039850;28;20270;-49
2021/03/28 02:27:05;;;;;;;5.93;2.80;;;;;;;1.94;100.00;97159.47;1044074;28;20251;-50
2021/03/28 02:27:39;;;;;;;7.00;2.53;;;;;;;1.94;100.00;97150.88;1044239;28;20725;-50
2021/03/28 02:28:23;;;;;;;4.60;1.92;;;;;;;1.99;100.00;97151.66;1031639;28;20333;-49
2021/03/28 02:29:04;;;;;;;7.60;2.83;;;;;;;2.01;100.00;97154.19;1039995;28;20268;-47
2021/03/28 02:29:54;;;;;;;5.30;2.10;;;;;;;2.02;100.00;97154.16;1044097;28;20263;-51
2021/03/28 02:30:40;;;;;;;7.07;2.47;;;;;;;2.04;100.00;97154.97;1039829;28;20277;-50
2021/03/28 02:31:23;;;;;;;4.65;2.20;;;;;;;2.06;100.00;97163.56;1038196;28;20369;-50
2021/03/28 02:32:06;;;;;;;7.78;2.20;;;;;;;2.12;100.00;97157.44;1039980;28;20244;-49
2021/03/28 02:32:50;;;;;;;4.45;2.15;;;;;;;2.13;100.00;97164.31;1039753;28;20248;-49
2021/03/28 02:33:32;;;;;;;5.13;2.55;;;;;;;2.12;100.00;97160.91;1035819;28;20253;-50
2021/03/28 02:34:12;;;;;;;6.10;2.35;;;;;;;2.14;100.00;97158.28;1043902;28;20274;-52
2021/03/28 02:35:01;;;;;;;7.20;2.60;;;;;;;2.18;100.00;97161.66;1039924;28;20769;-51
2021/03/28 02:35:46;;;;;;;7.72;2.33;;;;;;;2.19;100.00;97159.03;1040032;28;20049;-50
2021/03/28 02:36:30;;;;;;;6.28;2.65;;;;;;;2.21;100.00;97161.59;1039877;28;20322;-49
2021/03/28 02:37:13;;;;;;;6.63;2.40;;;;;;;2.23;100.00;97163.28;1044052;28;20256;-53
2021/03/28 02:37:58;;;;;;;5.95;2.05;;;;;;;2.29;100.00;97165.78;1039937;28;20247;-49
2021/03/28 02:38:48;;;;;;;5.72;2.10;;;;;;;2.30;100.00;97157.13;1039918;28;20264;-50
2021/03/28 02:39:23;;;;;;;5.32;2.28;;;;;;;2.31;100.00;97161.41;1036013;28;20678;-52
2021/03/28 02:39:57;;;;;;;5.45;2.08;;;;;;;2.33;100.00;97163.97;1027460;28;20029;-49
2021/03/28 02:40:38;;;;;;;6.90;2.40;;;;;;;2.36;100.00;97163.06;1035750;28;20318;-51
2021/03/28 02:41:15;;;;;;;6.28;2.30;;;;;;;2.38;100.00;97162.16;1043991;28;20305;-50
2021/03/28 02:42:06;;;;;;;6.80;2.53;;;;;;;2.38;100.00;97162.16;1035773;28;20249;-50
2021/03/28 02:42:50;;;;;;;7.45;2.67;;;;;;;2.38;100.00;97159.56;1035799;28;20280;-53
2021/03/28 02:43:40;;;;;;;5.75;2.35;;;;;;;2.35;100.00;97164.81;1036852;28;20272;-54
2021/03/28 02:44:26;;;;;;;9.43;2.65;;;;;;;2.36;100.00;97160.47;1044017;28;20260;-50
2021/03/28 02:45:13;;;;;;;5.03;2.30;;;;;;;2.34;100.00;97163.09;1040421;28;20123;-49
2021/03/28 02:45:45;;;;;;;6.47;2.67;;;;;;;2.34;100.00;97168.25;1031767;28;20253;-50
2021/03/28 02:46:22;;;;;;;6.05;2.20;;;;;;;2.35;100.00;97159.63;1027682;28;20776;-50
2021/03/28 02:46:58;;;;;;;5.40;2.40;;;;;;;2.34;100.00;97166.50;1031732;28;20723;-51
2021/03/28 02:47:29;;;;;;;5.90;1.92;;;;;;;2.36;100.00;97166.50;1035780;28;20257;-50
2021/03/28 02:48:20;;;;;;;9.73;2.67;;;;;;;2.38;100.00;97162.16;1035852;28;20268;-48
2021/03/28 02:49:04;;;;;;;4.50;1.92;;;;;;;2.39;100.00;97173.38;1035498;28;20280;-51
2021/03/28 02:49:55;;;;;;;4.75;2.40;;;;;;;2.39;100.00;97169.03;1039876;28;20306;-52
2021/03/28 02:50:45;;;;;;;5.20;2.40;;;;;;;2.43;100.00;97169.84;1040371;28;20281;-51
2021/03/28 02:51:21;;;;;;;7.07;2.40;;;;;;;2.44;100.00;97171.53;1042536;28;20064;-50
2021/03/28 02:52:03;;;;;;;5.03;2.33;;;;;;;2.43;100.00;97172.41;1039918;28;20017;-49
2021/03/28 02:52:44;;;;;;;6.88;2.70;;;;;;;2.44;100.00;97167.22;1039792;28;20319;-49
2021/03/28 02:53:28;;;;;;;5.63;2.33;;;;;;;2.46;100.00;97174.94;1035745;28;20672;-54
2021/03/28 02:54:12;;;;;;;4.63;2.33;;;;;;;2.45;100.00;97173.25;1031634;28;20336;-50
2021/03/28 02:55:02;;;;;;;5.78;2.00;;;;;;;2.48;100.00;97173.19;1043893;28;20298;-49
2021/03/28 02:55:52;;;;;;;4.65;2.30;;;;;;;2.52;100.00;97180.84;1039670;28;20303;-49
2021/03/28 02:56:34;;;;;;;5.40;2.80;;;;;;;2.56;100.00;97173.06;1035789;28;20029;-49
2021/03/28 02:57:24;;;;;;;6.05;2.42;;;;;;;2.61;100.00;97171.22;1039821;28;20458;-50
2021/03/28 02:58:15;;;;;;;5.88;2.40;;;;;;;2.64;100.00;97178.94;1035793;28;20687;-49
2021/03/28 02:58:57;;;;;;;6.47;2.30;;;;;;;2.63;100.00;97169.47;1031828;28;20022;-50
2021/03/28 02:59:39;;;;;;;5.25;2.08;;;;;;;2.66;100.00;97171.97;1024815;28;20606;-51
2021/03/28 03:00:14;;;;;;;4.45;2.10;;;;;;;2.66;100.00;97172.81;1035644;28;20331;-50
2021/03/28 03:01:00;;;;;;;6.68;2.38;;;;;;;2.67;100.00;97177.13;1039893;28;20264;-51
2021/03/28 03:01:45;;;;;;;6.40;2.78;;;;;;;2.58;100.00;97155.75;1039805;28;20295;-49
2021/03/28 03:02:25;;;;;;;7.15;2.40;;;;;;;2.71;100.00;97181.38;1035729;28;20264;-52
2021/03/28 03:03:04;;;;;;;6.45;2.17;;;;;;;2.69;100.00;97177.09;1031779;28;20285;-51
2021/03/28 03:03:39;;;;;;;6.93;2.50;;;;;;;2.68;100.00;97175.38;1031521;28;20480;-50
2021/03/28 03:04:23;;;;;;;10.35;2.78;;;;;;;2.65;100.00;97173.72;1031656;28;20297;-50
2021/03/28 03:05:01;;;;;;;5.95;2.67;;;;;;;2.71;100.00;97180.50;1027847;28;20704;-48
2021/03/28 03:05:41;;;;;;;6.85;2.60;;;;;;;2.69;100.00;97183.13;1027765;28;20315;-50
2021/03/28 03:06:12;;;;;;;;;;;;;;;2.70;100.00;97178.81;1036133;28;20269;-53
2021/03/28 03:07:01;;;;;;;4.78;2.35;;;;;;;2.72;100.00;97184.78;1039802;28;19999;-49
2021/03/28 03:07:44;;;;;;;8.45;2.50;;;;;;;2.78;100.00;97183.81;1039837;28;20108;-51
2021/03/28 03:08:19;;;;;;;5.97;2.42;;;;;;;2.79;100.00;97181.22;1032131;28;20128;-50
2021/03/28 03:09:20;;;;;;;5.38;2.13;;;;;;;2.80;100.00;97187.25;1035803;28;20253;-51
2021/03/28 03:10:05;;;;;;;8.98;2.50;;;;;;;2.81;100.00;97184.63;1032257;28;20258;-49
2021/03/28 03:10:55;;;;;;;7.28;2.50;;;;;;;2.82;100.00;97185.50;1029643;28;20026;-50
2021/03/28 03:11:37;;;;;;;6.38;2.42;;;;;;;2.81;100.00;97181.19;1036384;28;20257;-49
2021/03/28 03:12:21;;;;;;;5.55;2.47;;;;;;;2.81;100.00;97178.59;1040054;28;20041;-47
2021/03/28 03:12:59;;;;;;;6.63;2.35;;;;;;;2.82;100.00;97182.91;1039923;28;20260;-49
2021/03/28 03:13:41;;;;;;;7.80;2.45;;;;;;;2.86;100.00;97185.38;1039688;28;20283;-52
2021/03/28 03:14:31;;;;;;;6.00;2.55;;;;;;;2.85;100.00;97178.53;1039684;28;20272;-49
2021/03/28 03:15:15;;;;;;;6.72;2.20;;;;;;;2.85;100.00;97175.94;1035730;28;20265;-49